createdAt,value
2019-02-25T00:44:40.127Z,100838.00
2019-02-25T00:47:11.714Z,100825.38
2019-02-25T00:49:42.299Z,100818.52
2019-02-25T00:52:13.005Z,100820.58
2019-02-25T00:54:43.640Z,100813.80
2019-02-25T00:57:14.207Z,100810.25
2019-02-25T00:59:44.713Z,100805.42
2019-02-25T01:02:17.248Z,100799.26
2019-02-25T01:04:47.978Z,100800.27
2019-02-25T01:07:18.481Z,100798.69
2019-02-25T01:09:48.907Z,100794.31
2019-02-25T01:12:19.537Z,100785.50
2019-02-25T01:14:50.076Z,100781.08
2019-02-25T01:17:22.242Z,100781.81
2019-02-25T01:19:52.726Z,100778.61
2019-02-25T01:22:24.203Z,100773.24
2019-02-25T01:24:54.714Z,100772.14
2019-02-25T01:27:30.704Z,100764.12
2019-02-25T01:33:10.875Z,100758.31
2019-02-25T01:35:42.018Z,100755.91
2019-02-25T01:43:58.143Z,100763.62
2019-02-25T01:49:25.818Z,100756.45
2019-02-25T01:57:39.933Z,100750.45
2019-02-25T02:03:08.751Z,100744.80
2019-02-25T02:09:32.571Z,100735.27
2019-02-25T02:13:27.117Z,100736.13
2019-02-25T02:19:11.826Z,100741.52
2019-02-25T02:21:51.956Z,100743.73
2019-02-25T02:24:28.574Z,100732.52
2019-02-25T02:32:56.408Z,100733.30
2019-02-25T02:35:47.349Z,100715.72
2019-02-25T03:12:19.561Z,100666.30
2019-02-25T03:27:57.630Z,100636.05
2019-02-25T03:47:08.250Z,100581.67
2019-02-25T03:49:38.796Z,100581.67
2019-02-25T03:52:15.686Z,100580.36
2019-02-25T03:54:48.810Z,100583.28
2019-02-25T03:57:18.758Z,100585.75
2019-02-25T03:59:49.228Z,100581.19
2019-02-25T04:02:20.128Z,100574.98
2019-02-25T04:04:52.301Z,100592.36
2019-02-25T04:07:22.757Z,100589.81
2019-02-25T04:09:53.581Z,100583.69
2019-02-25T04:12:25.200Z,100577.05
2019-02-25T04:14:58.707Z,100573.75
2019-02-25T04:17:32.197Z,100569.37
2019-02-25T04:20:02.658Z,100571.06
2019-02-25T04:22:37.208Z,100565.67
2019-02-25T04:25:09.396Z,100565.53
2019-02-25T04:27:41.390Z,100558.51
2019-02-25T04:30:16.311Z,100555.81
2019-02-25T04:32:47.014Z,100555.81
2019-02-25T04:35:17.600Z,100550.36
2019-02-25T04:37:48.124Z,100541.95
2019-02-25T04:40:21.015Z,100541.91
2019-02-25T04:42:53.629Z,100537.81
2019-02-25T04:45:24.301Z,100533.58
2019-02-25T04:47:54.850Z,100532.13
2019-02-25T04:50:29.748Z,100517.81
2019-02-25T04:53:00.177Z,100517.81
2019-02-25T04:55:31.075Z,100529.52
2019-02-25T04:58:01.609Z,100529.52
2019-02-25T05:00:32.918Z,100530.66
2019-02-25T05:03:05.152Z,100524.27
2019-02-25T05:05:37.620Z,100518.20
2019-02-25T05:08:09.298Z,100514.35
2019-02-25T05:10:42.897Z,100505.91
2019-02-25T05:13:14.985Z,100518.45
2019-02-25T05:15:49.609Z,100510.03
2019-02-25T05:18:22.176Z,100507.14
2019-02-25T05:20:52.352Z,100513.43
2019-02-25T05:23:23.118Z,100509.13
2019-02-25T05:25:53.860Z,100513.05
2019-02-25T05:28:28.746Z,100515.59
2019-02-25T05:30:59.228Z,100511.58
2019-02-25T05:33:31.320Z,100506.21
2019-02-25T05:36:12.701Z,100500.20
2019-02-25T05:38:38.914Z,100495.57
2019-02-25T05:41:09.489Z,100499.06
2019-02-25T05:43:41.390Z,100501.50
2019-02-25T05:46:11.900Z,100503.14
2019-02-25T05:48:45.699Z,100507.75
2019-02-25T05:51:15.938Z,100502.50
2019-02-25T05:53:49.628Z,100506.20
2019-02-25T05:56:22.923Z,100501.11
2019-02-25T05:58:59.204Z,100491.33
2019-02-25T06:01:31.518Z,100492.33
2019-02-25T06:04:02.880Z,100487.01
2019-02-25T06:06:35.525Z,100488.23
2019-02-25T06:09:08.501Z,100494.67
2019-02-25T06:11:39.956Z,100494.77
2019-02-25T06:14:10.607Z,100493.53
2019-02-25T06:16:41.350Z,100497.45
2019-02-25T06:19:12.232Z,100497.80
2019-02-25T06:21:49.883Z,100492.72
2019-02-25T06:24:20.411Z,100491.13
2019-02-25T06:29:35.548Z,100475.41
2019-02-25T06:32:06.531Z,100476.64
2019-02-25T06:34:42.772Z,100478.56
2019-02-25T06:37:18.892Z,100480.57
2019-02-25T06:39:50.602Z,100478.35
2019-02-25T06:42:21.356Z,100467.39
2019-02-25T06:44:52.723Z,100461.63
2019-02-25T06:47:26.744Z,100458.63
2019-02-25T06:50:02.211Z,100451.39
2019-02-25T06:52:35.181Z,100444.19
2019-02-25T06:58:23.062Z,100438.70
2019-02-25T07:00:55.292Z,100429.21
2019-02-25T07:03:27.563Z,100422.83
2019-02-25T07:06:02.552Z,100424.59
2019-02-25T07:08:37.633Z,100411.23
2019-02-25T07:11:12.714Z,100411.23
2019-02-25T07:14:03.196Z,100408.72
2019-02-25T07:16:48.148Z,100392.38
2019-02-25T07:19:23.319Z,100392.38
2019-02-25T07:21:57.531Z,100383.06
2019-02-25T07:24:52.627Z,100375.71
2019-02-25T07:27:38.226Z,100365.84
2019-02-25T07:30:30.570Z,100363.62
2019-02-25T07:33:05.856Z,100358.13
2019-02-25T07:35:45.889Z,100355.36
2019-02-25T07:38:23.409Z,100344.95
2019-02-25T07:41:18.566Z,100343.80
2019-02-25T07:44:11.174Z,100347.07
2019-02-25T07:46:48.093Z,100335.28
2019-02-25T07:49:40.934Z,100334.14
2019-02-25T07:52:20.871Z,100331.75
2019-02-25T07:54:55.972Z,100325.74
2019-02-25T07:57:29.206Z,100318.04
2019-02-25T08:00:07.246Z,100314.55
2019-02-25T08:02:47.764Z,100310.37
2019-02-25T08:05:39.879Z,100292.16
2019-02-25T08:08:20.947Z,100286.29
2019-02-25T08:11:06.501Z,100269.56
2019-02-25T08:13:45.267Z,100274.35
2019-02-25T08:16:29.425Z,100274.35
2019-02-25T08:19:17.360Z,100293.11
2019-02-25T08:21:54.814Z,100293.77
2019-02-25T08:24:41.375Z,100288.93
2019-02-25T08:27:21.102Z,100275.38
2019-02-25T08:29:59.390Z,100269.63
2019-02-25T08:32:33.855Z,100278.10
2019-02-25T08:35:15.978Z,100268.55
2019-02-25T08:37:51.880Z,100269.67
2019-02-25T08:40:38.509Z,100257.66
2019-02-25T08:43:17.795Z,100248.73
2019-02-25T08:46:06.015Z,100231.05
2019-02-25T08:48:55.997Z,100235.52
2019-02-25T08:51:35.600Z,100226.29
2019-02-25T08:54:07.325Z,100222.38
2019-02-25T08:56:41.055Z,100213.84
2019-02-25T08:59:15.943Z,100200.89
2019-02-25T09:01:51.002Z,100184.44
2019-02-25T09:04:25.035Z,100176.72
2019-02-25T09:06:58.038Z,100173.88
2019-02-25T09:09:31.147Z,100175.25
2019-02-25T09:12:05.561Z,100166.33
2019-02-25T09:14:38.947Z,100165.20
2019-02-25T09:17:16.098Z,100165.84
2019-02-25T09:19:45.806Z,100151.32
2019-02-25T09:22:19.126Z,100148.80
2019-02-25T09:24:49.808Z,100152.68
2019-02-25T09:27:28.011Z,100151.30
2019-02-25T09:30:01.511Z,100158.13
2019-02-25T09:32:50.481Z,100141.81
2019-02-25T09:35:22.550Z,100154.04
2019-02-25T09:37:59.626Z,100153.45
2019-02-25T09:40:31.995Z,100145.06
2019-02-25T09:43:28.554Z,100132.98
2019-02-25T09:45:58.067Z,100117.48
2019-02-25T09:48:31.763Z,100127.54
2019-02-25T09:51:03.079Z,100126.97
2019-02-25T09:53:35.735Z,100120.30
2019-02-25T09:56:06.681Z,100116.67
2019-02-25T09:58:39.216Z,100116.23
2019-02-25T10:01:11.463Z,100102.42
2019-02-25T10:03:42.660Z,100106.36
2019-02-25T10:06:19.136Z,100097.09
2019-02-25T10:08:53.265Z,100080.31
2019-02-25T10:11:43.463Z,100081.21
2019-02-25T10:14:16.355Z,100076.73
2019-02-25T10:16:46.857Z,100075.64
2019-02-25T10:19:20.796Z,100073.54
2019-02-25T10:21:51.548Z,100076.06
2019-02-25T10:24:24.699Z,100077.37
2019-02-25T10:26:59.963Z,100072.40
2019-02-25T10:29:31.266Z,100065.19
2019-02-25T10:32:06.572Z,100066.92
2019-02-25T10:34:40.814Z,100045.14
2019-02-25T10:37:13.190Z,100044.19
2019-02-25T10:39:45.427Z,100045.83
2019-02-25T10:45:38.924Z,100044.82
2019-02-25T10:48:15.220Z,100026.81
2019-02-25T10:50:55.979Z,100012.14
2019-02-25T10:53:25.030Z,100011.20
2019-02-25T10:56:40.964Z,100008.98
2019-02-25T10:58:57.713Z,100014.78
2019-02-25T11:01:31.201Z,100020.84
2019-02-25T11:04:02.316Z,100016.59
2019-02-25T11:06:36.031Z,100014.46
2019-02-25T11:09:28.722Z,100007.89
2019-02-25T11:12:00.117Z,100003.52
2019-02-25T11:14:41.119Z,99999.34
2019-02-25T11:17:31.439Z,100004.52
2019-02-25T11:20:27.203Z,100007.39
2019-02-25T11:22:48.606Z,100000.99
2019-02-25T11:25:24.110Z,100000.47
2019-02-25T11:27:55.855Z,99999.72
2019-02-25T11:30:26.980Z,99992.31
2019-02-25T11:33:02.009Z,99986.61
2019-02-25T11:35:39.270Z,99989.61
2019-02-25T11:38:18.409Z,99981.82
2019-02-25T11:41:14.158Z,99966.17
2019-02-25T11:43:48.699Z,99956.41
2019-02-25T11:46:22.868Z,99952.58
2019-02-25T11:48:56.059Z,99936.72
2019-02-25T11:51:27.409Z,99938.17
2019-02-25T11:54:00.200Z,99930.34
2019-02-25T11:56:33.589Z,99929.95
2019-02-25T11:59:04.965Z,99928.12
2019-02-25T12:01:35.802Z,99929.27
2019-02-25T12:04:11.404Z,99927.46
2019-02-25T12:06:44.450Z,99927.27
2019-02-25T12:09:15.676Z,99931.91
2019-02-25T12:18:22.461Z,99911.83
2019-02-25T12:20:58.148Z,99903.72
2019-02-25T12:23:29.224Z,99906.44
2019-02-25T12:29:16.695Z,99895.88
2019-02-25T12:31:52.604Z,99893.49
2019-02-25T12:34:26.415Z,99898.64
2019-02-25T12:37:00.583Z,99891.70
2019-02-25T12:40:05.028Z,99881.53
2019-02-25T12:42:36.168Z,99888.91
2019-02-25T12:45:12.403Z,99881.52
2019-02-25T12:47:52.831Z,99881.00
2019-02-25T12:50:33.209Z,99875.52
2019-02-25T12:53:06.325Z,99876.15
2019-02-25T12:55:44.012Z,99871.06
2019-02-25T12:58:23.064Z,99877.69
2019-02-25T13:01:09.359Z,99872.27
2019-02-25T13:03:42.825Z,99864.08
2019-02-25T13:09:25.055Z,99844.89
2019-02-25T13:11:58.555Z,99848.31
2019-02-25T13:14:30.732Z,99842.48
2019-02-25T13:17:14.174Z,99850.30
2019-02-25T13:20:04.613Z,99844.36
2019-02-25T13:31:59.950Z,99819.55
2019-02-25T13:35:03.272Z,99818.11
2019-02-25T13:37:37.573Z,99811.78
2019-02-25T13:40:17.398Z,99815.26
2019-02-25T13:43:10.685Z,99810.39
2019-02-25T13:45:46.381Z,99794.84
2019-02-25T13:48:18.515Z,99788.05
2019-02-25T13:50:55.568Z,99776.94
2019-02-25T13:53:29.543Z,99763.75
2019-02-25T13:56:13.028Z,99763.75
2019-02-25T13:58:45.139Z,99758.76
2019-02-25T14:01:15.592Z,99761.62
2019-02-25T14:03:52.572Z,99751.45
2019-02-25T14:06:24.036Z,99738.30
2019-02-25T14:12:31.967Z,99725.63
2019-02-25T14:15:05.144Z,99731.02
2019-02-25T14:17:40.205Z,99744.41
2019-02-25T14:20:25.428Z,99742.86
2019-02-25T14:23:00.242Z,99744.05
2019-02-25T14:25:42.909Z,99737.98
2019-02-25T14:28:15.984Z,99736.28
2019-02-25T14:30:57.533Z,99728.65
2019-02-25T14:33:28.510Z,99728.16
2019-02-25T14:36:04.883Z,99728.39
2019-02-25T14:38:51.348Z,99724.20
2019-02-25T14:41:27.836Z,99729.95
2019-02-25T14:44:08.331Z,99723.15
2019-02-25T14:46:39.473Z,99723.27
2019-02-25T14:49:11.894Z,99713.70
2019-02-25T14:51:52.745Z,99719.79
2019-02-25T14:54:37.955Z,99719.20
2019-02-25T14:57:09.970Z,99706.30
2019-02-25T14:59:46.259Z,99703.89
2019-02-25T15:02:17.767Z,99710.58
2019-02-25T15:04:50.129Z,99705.93
2019-02-25T15:07:20.621Z,99706.75
2019-02-25T15:09:53.182Z,99699.59
2019-02-25T15:12:29.494Z,99703.16
2019-02-25T15:15:02.606Z,99697.57
2019-02-25T15:17:33.227Z,99697.33
2019-02-25T15:20:07.506Z,99693.61
2019-02-25T15:22:38.669Z,99699.11
2019-02-25T15:25:13.717Z,99697.57
2019-02-25T15:27:44.838Z,99690.75
2019-02-25T15:30:25.084Z,99700.19
2019-02-25T15:32:59.900Z,99699.70
2019-02-25T15:35:37.098Z,99700.53
2019-02-25T15:38:18.673Z,99700.89
2019-02-25T15:40:50.034Z,99694.19
2019-02-25T15:43:25.455Z,99689.31
2019-02-25T15:45:55.997Z,99685.11
2019-02-25T15:48:30.954Z,99697.45
2019-02-25T15:51:18.300Z,99683.80
2019-02-25T15:53:51.926Z,99684.30
2019-02-25T15:56:26.702Z,99678.66
2019-02-25T15:58:58.114Z,99670.64
2019-02-25T16:01:52.632Z,99667.31
2019-02-25T16:04:43.736Z,99671.48
2019-02-25T16:13:53.251Z,99664.67
2019-02-25T16:16:26.685Z,99655.56
2019-02-25T16:19:05.633Z,99654.61
2019-02-25T16:21:40.994Z,99659.15
2019-02-25T16:24:16.371Z,99653.44
2019-02-25T16:26:48.689Z,99647.91
2019-02-25T16:29:23.816Z,99647.34
2019-02-25T16:31:58.179Z,99648.88
2019-02-25T16:34:32.026Z,99646.48
2019-02-25T16:37:04.743Z,99646.11
2019-02-25T16:39:38.345Z,99640.63
2019-02-25T16:42:11.334Z,99637.28
2019-02-25T16:44:47.498Z,99645.52
2019-02-25T16:47:31.906Z,99660.12
2019-02-25T16:49:59.037Z,99649.70
2019-02-25T16:52:32.047Z,99648.39
2019-02-25T16:55:07.644Z,99648.75
2019-02-25T16:57:43.302Z,99645.64
2019-02-25T17:00:25.176Z,99639.41
2019-02-25T17:02:54.982Z,99631.39
2019-02-25T17:05:27.332Z,99636.21
2019-02-25T17:07:58.429Z,99636.80
2019-02-25T17:10:33.830Z,99635.95
2019-02-25T17:13:05.861Z,99627.71
2019-02-25T17:15:46.008Z,99630.83
2019-02-25T17:18:25.320Z,99617.43
2019-02-25T17:21:15.989Z,99620.41
2019-02-25T17:23:51.565Z,99607.62
2019-02-25T17:26:33.608Z,99603.91
2019-02-25T17:29:07.571Z,99594.84
2019-02-25T17:31:47.194Z,99600.22
2019-02-25T17:34:22.475Z,99596.41
2019-02-25T17:36:54.607Z,99590.69
2019-02-25T17:39:54.080Z,99585.53
2019-02-25T17:42:33.546Z,99585.75
2019-02-25T17:48:13.688Z,99577.00
2019-02-25T17:50:48.826Z,99575.46
2019-02-25T17:53:24.024Z,99563.27
2019-02-25T17:56:00.456Z,99560.64
2019-02-25T17:58:38.256Z,99558.36
2019-02-25T18:01:12.997Z,99554.16
2019-02-25T18:03:52.638Z,99553.42
2019-02-25T18:06:29.587Z,99558.20
2019-02-25T18:09:02.157Z,99555.31
2019-02-25T18:11:34.757Z,99549.25
2019-02-25T18:14:09.178Z,99548.52
2019-02-25T18:16:48.895Z,99552.53
2019-02-25T18:19:20.842Z,99551.09
2019-02-25T18:21:51.638Z,99555.09
2019-02-25T18:24:26.782Z,99546.98
2019-02-25T18:27:01.230Z,99545.28
2019-02-25T18:29:37.510Z,99538.61
2019-02-25T18:32:12.900Z,99538.22
2019-02-25T18:34:50.438Z,99538.08
2019-02-25T18:37:23.589Z,99528.63
2019-02-25T18:39:57.174Z,99522.52
2019-02-25T18:42:31.692Z,99521.95
2019-02-25T18:45:02.425Z,99524.10
2019-02-25T18:47:36.008Z,99512.22
2019-02-25T18:50:15.173Z,99512.22
2019-02-25T18:52:44.132Z,99512.48
2019-02-25T18:55:19.302Z,99501.69
2019-02-25T18:57:57.220Z,99501.69
2019-02-25T19:00:36.517Z,99502.70
2019-02-25T19:03:10.839Z,99502.70
2019-02-25T19:05:45.136Z,99493.80
2019-02-25T19:08:20.324Z,99502.12
2019-02-25T19:11:00.970Z,99499.44
2019-02-25T19:13:34.403Z,99499.44
2019-02-25T19:16:17.624Z,99482.61
2019-02-25T19:19:06.173Z,99482.61
2019-02-25T19:24:46.659Z,99482.14
2019-02-25T19:27:19.811Z,99484.55
2019-02-25T19:29:51.554Z,99483.03
2019-02-25T19:32:28.681Z,99452.55
2019-02-25T19:35:01.267Z,99452.55
2019-02-25T19:37:37.721Z,99463.16
2019-02-25T19:40:14.252Z,99463.16
2019-02-25T19:42:52.207Z,99458.07
2019-02-25T19:45:29.653Z,99438.18
2019-02-25T19:48:05.324Z,99433.74
2019-02-25T19:50:49.808Z,99433.74
2019-02-25T19:53:15.199Z,99437.21
2019-02-25T19:55:49.371Z,99421.31
2019-02-25T19:58:30.886Z,99421.31
2019-02-25T20:01:06.070Z,99412.64
2019-02-25T20:03:51.834Z,99406.31
2019-02-25T20:06:47.153Z,99395.72
2019-02-25T20:09:24.701Z,99391.44
2019-02-25T20:12:03.234Z,99379.53
2019-02-25T20:15:13.657Z,99367.38
2019-02-25T20:17:53.427Z,99367.38
2019-02-25T20:20:25.926Z,99364.95
2019-02-25T20:23:06.164Z,99363.02
2019-02-25T20:25:42.374Z,99363.02
2019-02-25T20:28:12.044Z,99361.48
2019-02-25T20:30:44.653Z,99352.87
2019-02-25T20:33:16.364Z,99347.63
2019-02-25T20:35:51.254Z,99347.63
2019-02-25T20:38:24.563Z,99350.25
2019-02-25T20:41:00.567Z,99346.94
2019-02-25T20:43:33.917Z,99334.42
2019-02-25T20:46:06.026Z,99324.55
2019-02-25T20:48:44.508Z,99321.93
2019-02-25T20:51:13.670Z,99318.23
2019-02-25T20:54:02.610Z,99309.44
2019-02-25T20:56:36.651Z,99309.44
2019-02-25T20:59:10.015Z,99306.58
2019-02-25T21:01:48.972Z,99302.53
2019-02-25T21:04:24.883Z,99301.22
2019-02-25T21:06:58.051Z,99300.87
2019-02-25T21:09:33.724Z,99288.14
2019-02-25T21:12:08.260Z,99272.88
2019-02-25T21:14:45.012Z,99279.55
2019-02-25T21:17:18.472Z,99274.32
2019-02-25T21:19:49.149Z,99268.46
2019-02-25T21:22:23.375Z,99262.05
2019-02-25T21:25:03.094Z,99254.06
2019-02-25T21:27:37.488Z,99248.80
2019-02-25T21:30:16.909Z,99256.08
2019-02-25T21:32:51.953Z,99245.47
2019-02-25T21:38:08.388Z,99256.80
2019-02-25T21:40:46.172Z,99250.70
2019-02-25T21:43:18.684Z,99244.88
2019-02-25T21:48:36.966Z,99235.45
2019-02-25T21:51:10.083Z,99231.02
2019-02-25T21:53:41.517Z,99227.22
2019-02-25T21:56:11.984Z,99227.22
2019-02-25T21:58:44.563Z,99214.20
2019-02-25T22:01:14.543Z,99214.20
2019-02-25T22:03:48.718Z,99208.14
2019-02-25T22:06:22.618Z,99205.75
2019-02-25T22:08:54.172Z,99198.13
2019-02-25T22:11:25.389Z,99198.13
2019-02-25T22:13:56.943Z,99191.22
2019-02-25T22:16:30.440Z,99191.22
2019-02-25T22:19:01.934Z,99185.25
2019-02-25T22:21:34.496Z,99183.95
2019-02-25T22:24:07.401Z,99190.16
2019-02-25T22:26:37.687Z,99176.92
2019-02-25T22:29:08.150Z,99176.92
2019-02-25T22:31:40.180Z,99175.98
2019-02-25T22:34:12.962Z,99170.48
2019-02-25T22:36:45.811Z,99166.56
2019-02-25T22:39:14.964Z,99154.86
2019-02-25T22:41:47.025Z,99152.59
2019-02-25T22:44:17.704Z,99154.86
2019-02-25T22:46:48.219Z,99155.30
2019-02-25T22:49:19.601Z,99154.12
2019-02-25T22:51:52.024Z,99145.03
2019-02-25T22:54:25.286Z,99149.32
2019-02-25T22:56:58.652Z,99138.92
2019-02-25T22:59:29.168Z,99138.92
2019-02-25T23:01:59.792Z,99138.80
2019-02-25T23:04:31.055Z,99138.14
2019-02-25T23:07:04.581Z,99135.14
2019-02-25T23:09:35.028Z,99136.03
2019-02-25T23:12:05.504Z,99134.77
2019-02-25T23:14:36.636Z,99124.88
2019-02-25T23:17:15.723Z,99126.35
2019-02-25T23:19:45.983Z,99127.00
2019-02-25T23:25:20.084Z,99132.92
2019-02-25T23:27:51.728Z,99132.47
2019-02-25T23:30:23.999Z,99128.09
2019-02-25T23:32:56.483Z,99131.07
2019-02-25T23:35:26.925Z,99124.67
2019-02-25T23:37:58.601Z,99126.56
2019-02-25T23:40:33.278Z,99123.22
2019-02-25T23:43:27.144Z,99117.12
2019-02-25T23:45:58.412Z,99117.31
2019-02-25T23:48:32.904Z,99123.38
2019-02-25T23:51:01.921Z,99121.92
2019-02-25T23:53:32.923Z,99117.84
2019-02-25T23:56:04.498Z,99120.34
2019-02-25T23:58:38.375Z,99112.66
